Time;durP1;ratioP1;P1;durP2;ratioP2;P2;SDS_P1;SDS_P2;PMS_P1;PMS_P2;Temp;Humidity;BMP_temperature;BMP_pressure;BME280_temperature;BME280_humidity;BME280_pressure;Samples;Min_cycle;Max_cycle;Signal;HPM_P1;HPM_P2
2023/09/04 00:02:10;;;;;;;7.03;3.15;;;;;;;20.51;79.81;94849.63;5051996;28;20203;-44
2023/09/04 00:04:38;;;;;;;5.57;2.97;;;;;;;20.42;81.58;94838.56;5052345;28;20190;-43
2023/09/04 00:07:06;;;;;;;8.07;3.22;;;;;;;20.33;83.01;94833.72;5052296;28;20191;-45
2023/09/04 00:09:33;;;;;;;5.95;2.88;;;;;;;20.24;83.75;94826.09;5051883;28;20199;-44
2023/09/04 00:11:59;;;;;;;5.55;2.95;;;;;;;20.18;84.68;94828.69;5051715;28;20191;-44
2023/09/04 00:14:26;;;;;;;9.75;3.47;;;;;;;20.12;86.35;94825.06;5052179;28;20191;-45
2023/09/04 00:16:53;;;;;;;4.80;3.20;;;;;;;20.01;87.42;94820.41;5051904;28;20222;-43
2023/09/04 00:19:20;;;;;;;6.15;3.08;;;;;;;19.93;88.27;94813.59;5052489;28;20245;-46
2023/09/04 00:21:46;;;;;;;6.38;3.05;;;;;;;19.83;87.76;94812.34;5052340;28;20186;-45
2023/09/04 00:24:15;;;;;;;4.38;2.78;;;;;;;19.75;87.71;94802.91;5051973;28;20191;-45
2023/09/04 00:26:41;;;;;;;4.20;3.20;;;;;;;19.68;89.57;94794.28;5051820;28;20663;-45
2023/09/04 00:29:08;;;;;;;10.03;3.50;;;;;;;19.62;88.26;94793.25;5051490;28;20223;-43
2023/09/04 00:31:35;;;;;;;3.60;2.60;;;;;;;19.57;89.21;94787.81;5051909;28;20191;-44
2023/09/04 00:34:02;;;;;;;5.37;3.23;;;;;;;19.55;89.94;94782.00;5051666;28;20582;-44
2023/09/04 00:36:29;;;;;;;5.87;2.90;;;;;;;19.51;90.96;94785.97;5051331;28;20214;-44
2023/09/04 00:38:55;;;;;;;4.07;3.03;;;;;;;19.43;90.38;94776.56;5051450;28;20194;-44
2023/09/04 00:41:24;;;;;;;3.93;2.60;;;;;;;19.34;90.50;94762.13;5051425;28;20199;-45
2023/09/04 00:43:50;;;;;;;4.37;3.00;;;;;;;19.43;90.50;94771.38;5051323;28;20194;-45
2023/09/04 00:46:18;;;;;;;6.13;3.10;;;;;;;19.39;91.35;94764.97;5051356;28;20651;-43
2023/09/04 00:48:46;;;;;;;6.33;3.27;;;;;;;19.32;93.06;94747.75;5051723;28;20613;-44
2023/09/04 00:51:13;;;;;;;3.97;2.90;;;;;;;19.26;93.80;94750.13;5051380;28;20272;-44
2023/09/04 00:53:40;;;;;;;5.80;3.20;;;;;;;19.24;94.15;94744.31;5051391;28;20257;-44
2023/09/04 00:56:08;;;;;;;4.30;3.13;;;;;;;19.20;95.20;94737.09;5051440;28;20226;-42
2023/09/04 00:58:36;;;;;;;4.03;2.77;;;;;;;19.19;96.73;94735.50;5051553;28;20210;-44
2023/09/04 01:01:03;;;;;;;8.17;3.20;;;;;;;19.19;97.09;94740.69;5051129;28;20217;-45
2023/09/04 01:03:31;;;;;;;3.50;3.20;;;;;;;19.21;97.66;94744.72;5050581;28;20191;-45
2023/09/04 01:05:57;;;;;;;5.10;3.20;;;;;;;19.15;98.27;94742.06;5050712;28;20537;-45
2023/09/04 01:08:25;;;;;;;5.50;3.30;;;;;;;19.09;98.82;94735.03;5050879;28;20241;-43
2023/09/04 01:11:06;;;;;;;6.83;3.40;;;;;;;19.11;98.68;94730.47;5050879;28;20200;-45
2023/09/04 01:13:41;;;;;;;4.57;3.40;;;;;;;19.08;98.23;94723.84;5051112;28;20183;-44
2023/09/04 01:16:09;;;;;;;8.00;3.73;;;;;;;19.07;98.26;94724.03;5050701;28;20210;-44
2023/09/04 01:18:36;;;;;;;3.23;2.90;;;;;;;18.83;99.14;94695.00;5050835;28;20194;-43
2023/09/04 01:21:04;;;;;;;3.43;3.13;;;;;;;18.90;99.61;94713.97;5050591;28;20209;-44
2023/09/04 01:23:32;;;;;;;5.43;3.17;;;;;;;18.83;99.75;94715.72;5051056;28;20194;-45
2023/09/04 01:26:07;;;;;;;3.70;3.17;;;;;;;18.76;100.00;94712.25;5050640;28;20198;-45
2023/09/04 01:28:44;;;;;;;6.00;3.40;;;;;;;18.71;100.00;94709.44;5050775;28;20187;-44
2023/09/04 01:31:19;;;;;;;4.10;3.40;;;;;;;18.65;100.00;94699.78;5050637;28;20351;-44
2023/09/04 01:33:51;;;;;;;4.53;3.23;;;;;;;18.61;100.00;94696.78;5050364;28;20662;-43
2023/09/04 01:36:22;;;;;;;3.70;3.20;;;;;;;18.56;99.87;94697.31;5050659;28;20215;-43
2023/09/04 01:38:50;;;;;;;3.53;3.23;;;;;;;18.51;100.00;94693.69;5050281;28;20307;-43
2023/09/04 01:41:17;;;;;;;5.80;3.67;;;;;;;18.50;100.00;94692.09;5050379;28;20577;-45
2023/09/04 01:43:44;;;;;;;3.50;3.27;;;;;;;18.51;99.54;94698.88;5050432;28;20272;-44
2023/09/04 01:46:11;;;;;;;4.77;3.73;;;;;;;18.43;100.00;94684.25;5049932;28;20191;-43
2023/09/04 01:48:38;;;;;;;3.97;3.67;;;;;;;18.46;99.55;94690.88;5050197;28;20195;-44
2023/09/04 01:51:04;;;;;;;3.97;3.47;;;;;;;18.43;98.65;94691.22;5050204;28;20191;-45
2023/09/04 01:53:33;;;;;;;4.33;3.70;;;;;;;18.42;98.45;94687.03;5050142;28;20198;-44
2023/09/04 01:55:59;;;;;;;4.03;3.53;;;;;;;18.45;98.05;94694.44;5050055;28;20257;-44
2023/09/04 01:58:27;;;;;;;4.93;3.43;;;;;;;18.39;98.42;94687.41;5049944;28;20693;-45
2023/09/04 02:00:54;;;;;;;4.20;3.50;;;;;;;18.34;99.10;94698.31;5049585;28;20282;-44
2023/09/04 02:03:20;;;;;;;4.63;3.47;;;;;;;18.26;98.72;94699.28;5049859;28;20608;-44
2023/09/04 02:05:47;;;;;;;3.90;3.60;;;;;;;18.20;99.10;94701.78;5049728;28;20762;-42
2023/09/04 02:08:14;;;;;;;3.47;3.17;;;;;;;18.19;98.77;94700.19;5049804;28;20198;-44
2023/09/04 02:10:42;;;;;;;3.87;3.57;;;;;;;18.15;98.68;94702.34;5049459;28;20199;-43
2023/09/04 02:13:09;;;;;;;4.30;3.63;;;;;;;18.18;98.57;94704.56;5049916;28;20236;-43
2023/09/04 02:15:37;;;;;;;6.97;3.50;;;;;;;18.18;98.56;94701.19;5049769;28;20195;-44
2023/09/04 02:18:05;;;;;;;4.17;3.87;;;;;;;18.17;98.28;94704.72;5050751;28;20678;-44
2023/09/04 02:20:32;;;;;;;4.23;3.83;;;;;;;18.13;97.45;94701.69;5049514;28;20682;-43
2023/09/04 02:22:59;;;;;;;4.43;3.90;;;;;;;18.11;97.61;94706.28;5049440;28;20635;-44
2023/09/04 02:25:26;;;;;;;3.73;3.43;;;;;;;18.10;97.64;94702.09;5049434;28;20198;-44
2023/09/04 02:27:55;;;;;;;3.93;3.60;;;;;;;18.09;97.14;94699.66;5049359;28;20662;-44
2023/09/04 02:30:22;;;;;;;4.30;3.77;;;;;;;18.08;96.27;94698.06;5049538;28;20234;-43
2023/09/04 02:32:48;;;;;;;5.57;4.10;;;;;;;18.09;96.28;94697.06;5049676;28;20195;-44
2023/09/04 02:35:15;;;;;;;6.27;4.20;;;;;;;18.08;95.76;94693.69;5049347;28;20273;-43
2023/09/04 02:37:44;;;;;;;4.37;3.97;;;;;;;18.10;96.53;94690.94;5049243;28;20223;-43
2023/09/04 02:40:12;;;;;;;4.67;3.40;;;;;;;18.04;97.28;94685.47;5049402;28;20202;-43
2023/09/04 02:42:38;;;;;;;4.80;4.30;;;;;;;18.05;96.66;94694.06;5049138;28;20275;-43
2023/09/04 02:45:08;;;;;;;3.80;3.50;;;;;;;18.05;96.81;94681.13;5049459;28;20194;-42
2023/09/04 02:47:37;;;;;;;4.63;3.83;;;;;;;18.08;97.37;94685.13;5049520;28;20183;-44
2023/09/04 02:50:05;;;;;;;4.23;3.83;;;;;;;18.07;97.00;94688.72;5049185;28;20322;-44
2023/09/04 02:52:32;;;;;;;4.77;3.73;;;;;;;18.06;97.06;94687.91;5049048;28;20223;-43
2023/09/04 02:54:59;;;;;;;6.70;3.70;;;;;;;18.04;97.29;94688.06;5049433;28;20183;-44
2023/09/04 02:57:26;;;;;;;3.60;3.30;;;;;;;17.95;97.32;94667.69;5048993;28;20340;-45
2023/09/04 02:59:53;;;;;;;3.63;3.33;;;;;;;18.10;96.33;94683.16;5049396;28;20191;-44
2023/09/04 03:02:21;;;;;;;3.63;3.33;;;;;;;17.94;96.59;94656.53;5049281;28;20191;-41
2023/09/04 03:04:54;;;;;;;3.10;2.87;;;;;;;18.09;96.54;94687.56;5048748;28;20191;-46
2023/09/04 03:07:21;;;;;;;3.00;2.70;;;;;;;18.13;95.56;94683.56;5049230;28;20225;-44
2023/09/04 03:09:48;;;;;;;3.63;3.33;;;;;;;18.07;94.92;94675.75;5049087;28;20210;-44
2023/09/04 03:12:14;;;;;;;3.07;2.87;;;;;;;18.11;94.60;94684.78;5049004;28;20195;-45
2023/09/04 03:14:41;;;;;;;3.87;3.40;;;;;;;18.09;94.32;94682.38;5048789;28;20203;-45
2023/09/04 03:17:08;;;;;;;3.87;3.10;;;;;;;18.08;94.16;94680.75;5048897;28;20210;-44
2023/09/04 03:19:36;;;;;;;3.33;3.13;;;;;;;18.08;93.95;94672.19;5048821;28;20202;-44
2023/09/04 03:22:03;;;;;;;3.20;3.00;;;;;;;18.07;94.25;94668.00;5049167;28;20186;-44
2023/09/04 03:24:30;;;;;;;2.93;2.73;;;;;;;18.05;94.14;94674.16;5048803;28;20187;-46
2023/09/04 03:26:57;;;;;;;3.27;3.07;;;;;;;18.04;93.52;94675.13;5050526;28;20202;-44
2023/09/04 03:29:24;;;;;;;3.00;2.70;;;;;;;18.05;93.48;94678.53;5052237;28;20227;-43
2023/09/04 03:31:51;;;;;;;3.80;3.40;;;;;;;18.04;93.05;94684.69;5053090;28;20274;-44
2023/09/04 03:34:18;;;;;;;3.40;3.10;;;;;;;18.05;93.03;94688.91;5052413;28;20190;-45
2023/09/04 03:36:47;;;;;;;3.23;3.03;;;;;;;18.05;93.22;94681.94;5052755;28;20226;-45
2023/09/04 03:39:14;;;;;;;5.03;3.30;;;;;;;18.07;93.04;94680.94;5052278;28;20229;-44
2023/09/04 03:41:40;;;;;;;3.50;3.20;;;;;;;18.04;93.26;94692.44;5052835;28;20348;-45
2023/09/04 03:44:07;;;;;;;3.90;3.50;;;;;;;18.02;93.21;94684.09;5052778;28;20286;-45
2023/09/04 03:46:34;;;;;;;6.13;3.03;;;;;;;18.00;92.82;94691.22;5052049;28;20195;-43
2023/09/04 03:49:01;;;;;;;3.20;2.93;;;;;;;17.91;93.00;94684.56;5052235;28;20544;-44
2023/09/04 03:51:27;;;;;;;4.20;3.50;;;;;;;17.96;92.43;94700.31;5051945;28;20195;-45
2023/09/04 03:54:01;;;;;;;3.07;2.87;;;;;;;17.97;92.14;94689.81;5052080;28;20241;-43
2023/09/04 03:56:28;;;;;;;3.17;2.97;;;;;;;17.77;92.64;94668.09;5052260;28;20274;-44
2023/09/04 03:58:55;;;;;;;3.40;3.10;;;;;;;17.94;92.47;94695.34;5052176;28;20632;-44
2023/09/04 04:01:22;;;;;;;5.03;3.37;;;;;;;17.96;92.20;94692.56;5052038;28;20191;-44
2023/09/04 04:03:49;;;;;;;4.90;3.53;;;;;;;17.95;91.97;94694.34;5052100;28;20701;-44
2023/09/04 04:06:16;;;;;;;3.60;3.30;;;;;;;17.92;92.77;94693.91;5051912;28;20201;-45
2023/09/04 04:08:45;;;;;;;3.97;3.67;;;;;;;17.93;92.78;94690.34;5051577;28;20191;-44
2023/09/04 04:11:13;;;;;;;3.80;3.50;;;;;;;17.93;92.47;94690.34;5051578;28;20662;-44
2023/09/04 04:13:40;;;;;;;4.30;3.90;;;;;;;17.92;92.89;94693.91;5052229;28;20195;-44
2023/09/04 04:16:06;;;;;;;3.87;3.47;;;;;;;17.89;92.77;94691.72;5051717;28;20187;-44
2023/09/04 04:18:33;;;;;;;5.23;3.80;;;;;;;17.91;92.63;94694.91;5051653;28;20678;-45
2023/09/04 04:21:00;;;;;;;4.37;3.97;;;;;;;17.93;92.47;94692.94;5051556;28;20601;-43
2023/09/04 04:23:27;;;;;;;4.00;3.60;;;;;;;17.91;92.63;94687.13;5051455;28;20187;-45
2023/09/04 04:25:54;;;;;;;4.20;3.50;;;;;;;17.92;92.25;94688.72;5051945;28;20195;-45
2023/09/04 04:28:23;;;;;;;4.23;3.20;;;;;;;17.92;92.23;94686.97;5051523;28;20225;-44
2023/09/04 04:30:50;;;;;;;3.47;3.17;;;;;;;17.94;91.42;94689.38;5051403;28;20233;-44
2023/09/04 04:33:16;;;;;;;3.43;3.13;;;;;;;17.94;90.55;94682.41;5051234;28;20650;-46
2023/09/04 04:35:44;;;;;;;3.60;3.03;;;;;;;17.92;90.68;94689.56;5051178;28;20218;-45
2023/09/04 04:38:10;;;;;;;3.80;3.50;;;;;;;17.92;90.80;94686.16;5049994;28;20246;-44
2023/09/04 04:40:49;;;;;;;;;;;;;;;;;;;;;
2023/09/04 04:43:16;;;;;;;4.80;3.00;;;;;;;18.00;89.38;94698.97;5050827;28;20619;-43
2023/09/04 04:45:44;;;;;;;3.47;3.13;;;;;;;17.96;89.41;94688.22;5051060;28;20199;-44
2023/09/04 04:48:11;;;;;;;3.57;3.00;;;;;;;17.97;89.68;94694.19;5051202;28;20648;-46
2023/09/04 04:50:38;;;;;;;3.50;3.20;;;;;;;17.98;89.58;94686.22;5051109;28;20198;-48
2023/09/04 04:53:04;;;;;;;3.10;2.90;;;;;;;17.97;89.50;94691.59;5051308;28;20572;-45
2023/09/04 04:55:31;;;;;;;4.93;3.60;;;;;;;17.99;88.82;94697.38;5050996;28;20210;-44
2023/09/04 04:57:58;;;;;;;3.90;3.13;;;;;;;17.99;89.09;94687.81;5050829;28;20265;-43
2023/09/04 05:00:25;;;;;;;3.57;2.87;;;;;;;17.97;88.95;94689.81;5051074;28;20194;-45
2023/09/04 05:02:53;;;;;;;2.83;2.63;;;;;;;18.01;88.73;94691.06;5051222;28;20198;-47
2023/09/04 05:05:20;;;;;;;3.87;2.70;;;;;;;18.01;88.60;94690.25;5050861;28;20624;-46
2023/09/04 05:07:47;;;;;;;3.10;2.80;;;;;;;18.03;88.28;94689.06;5051287;28;20195;-45
2023/09/04 05:10:14;;;;;;;2.67;2.47;;;;;;;18.07;87.34;94688.72;5050686;28;20191;-44
2023/09/04 05:12:40;;;;;;;3.07;2.77;;;;;;;18.03;87.38;94681.31;5051030;28;20206;-44
2023/09/04 05:15:08;;;;;;;5.33;2.97;;;;;;;18.04;87.29;94685.47;5050845;28;20564;-43
2023/09/04 05:17:35;;;;;;;3.00;2.63;;;;;;;17.93;86.89;94656.72;5050653;28;20219;-43
2023/09/04 05:20:05;;;;;;;2.60;2.40;;;;;;;18.14;86.71;94682.63;5050481;28;20225;-45
2023/09/04 05:22:32;;;;;;;2.80;2.60;;;;;;;18.18;86.96;94680.47;5050658;28;20611;-43
2023/09/04 05:24:59;;;;;;;3.03;2.73;;;;;;;18.17;85.81;94671.88;5050755;28;20187;-47
2023/09/04 05:27:26;;;;;;;2.80;2.60;;;;;;;18.26;84.97;94690.69;5050624;28;20260;-42
2023/09/04 05:29:54;;;;;;;4.70;3.00;;;;;;;18.27;85.16;94687.13;5050292;28;20227;-44
2023/09/04 05:32:21;;;;;;;3.10;2.90;;;;;;;18.27;84.98;94680.16;5050793;28;20278;-43
2023/09/04 05:34:52;;;;;;;3.20;2.90;;;;;;;18.27;85.03;94687.91;5050461;28;20248;-45
2023/09/04 05:37:20;;;;;;;4.33;3.00;;;;;;;18.29;84.91;94687.72;5050399;28;20230;-44
2023/09/04 05:39:47;;;;;;;3.37;3.10;;;;;;;18.37;83.30;94676.44;5050209;28;20202;-44
2023/09/04 05:42:14;;;;;;;3.80;3.00;;;;;;;18.35;83.18;94678.41;5032439;28;20254;-46
2023/09/04 05:44:40;;;;;;;3.13;2.90;;;;;;;18.37;83.92;94674.66;5050333;28;20685;-45
2023/09/04 05:47:07;;;;;;;3.53;3.23;;;;;;;18.40;82.42;94678.66;5050109;28;20191;-45
2023/09/04 05:49:33;;;;;;;3.70;2.77;;;;;;;18.37;82.14;94671.28;5049771;28;20190;-43
2023/09/04 05:52:00;;;;;;;9.47;3.50;;;;;;;18.40;81.81;94673.50;5049977;28;20619;-43
2023/09/04 05:54:29;;;;;;;3.67;3.00;;;;;;;18.30;81.70;94656.47;5049990;28;20618;-44
2023/09/04 05:56:55;;;;;;;3.27;3.00;;;;;;;18.43;80.75;94675.69;5050090;28;20249;-43
2023/09/04 05:59:23;;;;;;;2.90;2.70;;;;;;;18.45;79.37;94673.72;5049997;28;20230;-44
2023/09/04 06:01:50;;;;;;;3.23;2.93;;;;;;;18.38;79.96;94663.31;5049592;28;20290;-45
2023/09/04 06:04:16;;;;;;;3.00;2.80;;;;;;;18.41;80.40;94667.31;5049876;28;20198;-47
2023/09/04 06:06:43;;;;;;;3.50;3.20;;;;;;;18.43;80.39;94667.94;5049797;28;20191;-44
2023/09/04 06:09:11;;;;;;;5.83;3.27;;;;;;;18.45;80.24;94671.94;5049858;28;20202;-44
2023/09/04 06:11:39;;;;;;;3.00;2.80;;;;;;;18.46;79.48;94663.19;5049738;28;20206;-45
2023/09/04 06:14:06;;;;;;;3.80;3.40;;;;;;;18.45;79.78;94664.16;5050060;28;20195;-43
2023/09/04 06:16:34;;;;;;;3.53;3.23;;;;;;;18.42;79.55;94664.53;5050147;28;20183;-44
2023/09/04 06:19:01;;;;;;;3.23;3.00;;;;;;;18.44;79.53;94670.34;5049995;28;20242;-43
2023/09/04 06:21:28;;;;;;;3.90;3.60;;;;;;;18.47;78.44;94669.16;5050169;28;20256;-45
2023/09/04 06:23:54;;;;;;;4.07;3.20;;;;;;;18.44;78.32;94667.75;5049524;28;20194;-46
2023/09/04 06:26:21;;;;;;;3.33;3.00;;;;;;;18.47;77.19;94667.34;5049490;28;20198;-45
2023/09/04 06:28:49;;;;;;;3.43;3.13;;;;;;;18.41;78.39;94672.50;5049353;28;20195;-46
2023/09/04 06:31:16;;;;;;;3.37;2.70;;;;;;;18.41;78.75;94668.13;5049676;28;20651;-44
2023/09/04 06:33:43;;;;;;;3.50;3.20;;;;;;;18.43;78.52;94666.13;5049634;28;20195;-46
2023/09/04 06:36:11;;;;;;;3.90;3.23;;;;;;;18.47;78.04;94675.13;5049507;28;20646;-45
2023/09/04 06:38:37;;;;;;;3.20;3.00;;;;;;;18.45;78.26;94677.13;5048184;28;20218;-45
2023/09/04 06:41:04;;;;;;;5.30;3.07;;;;;;;18.50;78.57;94679.94;5047419;28;20223;-44
2023/09/04 06:43:31;;;;;;;3.80;3.50;;;;;;;18.55;78.41;94672.41;5047140;28;20187;-45
2023/09/04 06:46:01;;;;;;;5.60;3.00;;;;;;;18.64;77.47;94678.25;5046993;28;20210;-44
2023/09/04 06:48:28;;;;;;;3.50;3.20;;;;;;;18.42;77.16;94645.63;5046936;28;20562;-43
2023/09/04 06:50:55;;;;;;;3.87;3.10;;;;;;;18.70;76.81;94685.31;5045831;28;20667;-44
2023/09/04 06:53:23;;;;;;;3.43;3.13;;;;;;;18.71;77.09;94680.94;5048930;28;20191;-43
2023/09/04 06:55:50;;;;;;;3.20;2.97;;;;;;;18.86;76.82;94694.59;5049201;28;20187;-45
2023/09/04 06:58:17;;;;;;;4.83;3.60;;;;;;;18.92;76.72;94693.06;5049394;28;20230;-44
2023/09/04 07:00:43;;;;;;;3.97;3.10;;;;;;;18.98;76.83;94694.88;5048816;28;20800;-44
2023/09/04 07:03:12;;;;;;;7.03;3.90;;;;;;;18.97;75.59;94682.91;5049204;28;20183;-44
2023/09/04 07:05:38;;;;;;;3.77;3.37;;;;;;;18.93;74.98;94685.09;5049374;28;20194;-45
2023/09/04 07:08:06;;;;;;;3.27;3.03;;;;;;;19.00;75.21;94687.72;5049572;28;20206;-44
2023/09/04 07:10:33;;;;;;;3.40;3.10;;;;;;;18.57;75.44;94625.63;5048719;28;20221;-45
2023/09/04 07:13:02;;;;;;;3.30;3.00;;;;;;;19.05;73.25;94700.91;5049426;28;20195;-45
2023/09/04 07:15:29;;;;;;;3.77;3.47;;;;;;;18.96;73.39;94686.50;5048594;28;20674;-45
2023/09/04 07:17:59;;;;;;;6.23;3.40;;;;;;;18.92;74.72;94687.88;5049128;28;20221;-44
2023/09/04 07:20:27;;;;;;;4.20;3.20;;;;;;;18.90;75.28;94693.22;5049172;28;20702;-44
2023/09/04 07:22:54;;;;;;;3.70;3.40;;;;;;;18.97;74.88;94693.28;5049670;28;20201;-44
2023/09/04 07:25:21;;;;;;;3.93;3.50;;;;;;;19.03;74.98;94705.47;5049496;28;20195;-45
2023/09/04 07:27:48;;;;;;;4.13;3.30;;;;;;;19.04;75.07;94707.06;5049583;28;20191;-46
2023/09/04 07:30:15;;;;;;;5.73;3.40;;;;;;;19.05;75.23;94708.69;5048795;28;20326;-46
2023/09/04 07:32:41;;;;;;;3.63;3.33;;;;;;;19.03;75.15;94705.47;5049292;28;20194;-46
2023/09/04 07:35:10;;;;;;;3.73;3.33;;;;;;;19.06;74.51;94710.28;5049360;28;20865;-44
2023/09/04 07:37:38;;;;;;;5.50;3.33;;;;;;;19.03;74.33;94708.88;5049120;28;20191;-45
2023/09/04 07:40:06;;;;;;;3.90;3.60;;;;;;;19.05;74.17;94713.88;5049241;28;20716;-44
2023/09/04 07:42:33;;;;;;;3.97;3.63;;;;;;;19.03;73.93;94705.47;5048935;28;20229;-44
2023/09/04 07:44:59;;;;;;;4.20;3.90;;;;;;;19.05;75.20;94709.50;5048985;28;20567;-45
2023/09/04 07:47:26;;;;;;;4.43;4.03;;;;;;;19.14;74.41;94709.34;5048545;28;20186;-45
2023/09/04 07:49:55;;;;;;;3.67;3.37;;;;;;;19.21;74.14;94705.81;5049134;28;20195;-45
2023/09/04 07:52:21;;;;;;;4.07;3.57;;;;;;;19.33;73.25;94703.47;5048767;28;20655;-44
2023/09/04 07:54:50;;;;;;;3.40;3.20;;;;;;;19.43;72.58;94701.34;5049096;28;20195;-43
2023/09/04 07:57:17;;;;;;;4.40;3.70;;;;;;;19.56;72.24;94703.22;5048942;28;20191;-44
2023/09/04 07:59:44;;;;;;;4.20;3.50;;;;;;;19.65;72.45;94707.25;5048895;28;20211;-45
2023/09/04 08:02:11;;;;;;;4.13;3.83;;;;;;;19.79;71.01;94702.91;5048473;28;20666;-46
2023/09/04 08:04:39;;;;;;;3.50;3.20;;;;;;;19.81;70.77;94695.72;5048863;28;20201;-45
2023/09/04 08:07:06;;;;;;;4.33;3.93;;;;;;;19.93;70.70;94714.16;5048602;28;20199;-44
2023/09/04 08:09:33;;;;;;;4.17;3.77;;;;;;;19.90;69.65;94706.75;5049101;28;20270;-44
2023/09/04 08:12:01;;;;;;;4.15;3.40;;;;;;;19.80;70.28;94714.91;5048513;28;20674;-44
2023/09/04 08:14:33;;;;;;;3.93;3.63;;;;;;;19.77;70.39;94710.09;5051474;28;20198;-46
2023/09/04 08:17:01;;;;;;;5.50;3.20;;;;;;;19.78;70.87;94702.13;5052273;28;20666;-46
2023/09/04 08:19:28;;;;;;;4.60;4.20;;;;;;;19.91;70.81;94709.16;5052445;28;20243;-44
2023/09/04 08:21:55;;;;;;;4.30;4.00;;;;;;;20.02;70.64;94707.78;5052343;28;20187;-44
2023/09/04 08:24:21;;;;;;;5.50;4.07;;;;;;;20.14;70.11;94711.41;5052279;28;20190;-47
2023/09/04 08:26:48;;;;;;;4.27;3.77;;;;;;;20.19;69.66;94695.25;5052057;28;20195;-43
2023/09/04 08:29:16;;;;;;;4.93;3.80;;;;;;;20.26;68.53;94703.84;5051054;28;20253;-44
2023/09/04 08:31:43;;;;;;;5.05;3.88;;;;;;;20.24;68.16;94704.03;5052169;28;20199;-44
2023/09/04 08:34:10;;;;;;;4.57;3.80;;;;;;;20.18;69.07;94707.44;5052100;28;20187;-46
2023/09/04 08:36:37;;;;;;;4.93;3.75;;;;;;;20.18;69.53;94701.44;5051933;28;20190;-46
2023/09/04 08:39:04;;;;;;;5.18;4.03;;;;;;;20.28;69.35;94709.63;5051409;28;20317;-45
2023/09/04 08:41:31;;;;;;;4.25;3.83;;;;;;;20.36;67.84;94699.06;5052080;28;20195;-46
2023/09/04 08:43:59;;;;;;;4.47;4.07;;;;;;;20.34;68.01;94701.06;5051376;28;20188;-45
2023/09/04 08:46:29;;;;;;;5.57;4.00;;;;;;;20.38;67.92;94698.84;5052038;28;20195;-45
2023/09/04 08:49:01;;;;;;;4.85;4.40;;;;;;;20.40;68.09;94692.47;5051603;28;20191;-45
2023/09/04 08:51:28;;;;;;;5.32;4.40;;;;;;;20.46;67.75;94696.06;5051562;28;20710;-44
2023/09/04 08:53:56;;;;;;;4.25;3.72;;;;;;;20.41;66.42;94690.69;5051159;28;20659;-45
2023/09/04 08:56:22;;;;;;;4.38;4.07;;;;;;;20.39;66.82;94693.47;5051091;28;20233;-44
2023/09/04 08:58:49;;;;;;;3.95;3.60;;;;;;;20.27;66.72;94702.84;5051524;28;20223;-44
2023/09/04 09:01:17;;;;;;;7.10;4.50;;;;;;;20.17;67.71;94707.63;5051288;28;20202;-44
2023/09/04 09:03:45;;;;;;;6.20;4.30;;;;;;;20.14;67.90;94711.41;5051555;28;20194;-43
2023/09/04 09:06:12;;;;;;;4.43;4.03;;;;;;;20.09;67.71;94713.00;5051244;28;20195;-41
2023/09/04 09:08:40;;;;;;;5.75;4.65;;;;;;;20.01;68.23;94703.59;5051640;28;20198;-47
2023/09/04 09:11:06;;;;;;;3.78;3.47;;;;;;;19.95;68.75;94712.97;5051018;28;20187;-42
2023/09/04 09:13:33;;;;;;;4.97;4.30;;;;;;;19.86;69.10;94708.94;5051153;28;20647;-42
2023/09/04 09:16:00;;;;;;;5.77;4.50;;;;;;;19.89;69.16;94715.53;5050847;28;20195;-41
2023/09/04 09:18:37;;;;;;;5.03;4.32;;;;;;;19.78;69.27;94716.91;5051308;28;20262;-44
2023/09/04 09:21:21;;;;;;;4.50;4.10;;;;;;;19.73;70.22;94720.06;5050720;28;20205;-44
2023/09/04 09:23:49;;;;;;;4.78;4.38;;;;;;;19.71;70.76;94713.47;5050792;28;20190;-44
2023/09/04 09:26:16;;;;;;;5.13;4.63;;;;;;;19.67;71.16;94715.66;5050522;28;20222;-44
2023/09/04 09:28:44;;;;;;;4.47;4.07;;;;;;;19.68;70.88;94716.44;5050488;28;20210;-45
2023/09/04 09:31:12;;;;;;;6.83;4.43;;;;;;;19.63;71.33;94721.41;5050447;28;20187;-45
2023/09/04 09:33:39;;;;;;;5.53;5.03;;;;;;;19.60;71.25;94724.34;5051168;28;20253;-44
2023/09/04 09:36:14;;;;;;;14.45;4.72;;;;;;;19.50;72.11;94720.31;5050468;28;20656;-45
2023/09/04 09:38:45;;;;;;;5.60;5.10;;;;;;;19.46;72.36;94724.28;5050534;28;20329;-45
2023/09/04 09:41:13;;;;;;;5.57;5.17;;;;;;;19.48;72.53;94716.34;5050872;28;20194;-45
2023/09/04 09:43:40;;;;;;;5.47;4.97;;;;;;;19.44;72.79;94717.72;5050664;28;20674;-45
2023/09/04 09:46:08;;;;;;;4.97;4.57;;;;;;;19.38;73.13;94713.25;5050580;28;20194;-45
2023/09/04 09:48:36;;;;;;;6.37;5.30;;;;;;;19.41;72.76;94724.06;5050871;28;20229;-45
2023/09/04 09:51:06;;;;;;;7.47;5.63;;;;;;;19.38;72.87;94721.03;5050604;28;20194;-47
2023/09/04 09:53:46;;;;;;;9.13;5.40;;;;;;;19.40;73.09;94711.28;5050624;28;20298;-44
2023/09/04 09:56:14;;;;;;;6.97;5.00;;;;;;;19.40;72.99;94719.88;5050197;28;20194;-43
2023/09/04 09:58:43;;;;;;;7.23;5.27;;;;;;;19.43;73.26;94710.91;5050553;28;20367;-43
2023/09/04 10:01:10;;;;;;;6.10;5.53;;;;;;;19.44;73.03;94708.13;5049999;28;20758;-44
2023/09/04 10:03:38;;;;;;;12.83;5.70;;;;;;;19.44;72.96;94715.91;5050443;28;20183;-43
2023/09/04 10:06:06;;;;;;;8.00;5.60;;;;;;;19.21;72.59;94684.25;5050472;28;20179;-43
2023/09/04 10:08:35;;;;;;;6.20;5.35;;;;;;;19.32;73.20;94714.03;5050342;28;20187;-45
2023/09/04 10:11:07;;;;;;;6.57;5.60;;;;;;;19.32;73.84;94707.06;5049959;28;20198;-44
2023/09/04 10:13:39;;;;;;;7.17;5.80;;;;;;;19.38;74.13;94713.25;5050162;28;20191;-45
2023/09/04 10:16:12;;;;;;;7.13;6.33;;;;;;;19.36;74.59;94702.28;5049824;28;20199;-46
2023/09/04 10:18:45;;;;;;;7.30;5.97;;;;;;;19.39;75.66;94701.91;5049801;28;20210;-44
2023/09/04 10:21:16;;;;;;;6.40;5.80;;;;;;;19.32;76.57;94703.66;5050366;28;20193;-44
2023/09/04 10:23:50;;;;;;;6.33;5.83;;;;;;;19.29;77.16;94700.44;5050293;28;20264;-45
2023/09/04 10:26:24;;;;;;;6.40;5.90;;;;;;;19.26;77.61;94694.88;5049916;28;20277;-46
2023/09/04 10:28:58;;;;;;;6.73;6.10;;;;;;;19.31;77.50;94708.06;5049696;28;20787;-44
2023/09/04 10:31:27;;;;;;;6.53;5.60;;;;;;;19.30;78.41;94703.88;5049870;28;20202;-44
2023/09/04 10:33:57;;;;;;;6.83;6.03;;;;;;;19.33;78.37;94702.66;5049995;28;20597;-45
2023/09/04 10:36:24;;;;;;;6.67;6.07;;;;;;;19.27;78.19;94702.44;5049078;28;20665;-46
2023/09/04 10:38:51;;;;;;;7.27;6.33;;;;;;;19.25;79.33;94704.41;5049539;28;20241;-44
2023/09/04 10:41:20;;;;;;;7.73;6.83;;;;;;;19.16;78.75;94710.75;5031576;28;20202;-44
2023/09/04 10:43:47;;;;;;;7.30;6.47;;;;;;;18.99;79.01;94712.03;5050113;28;20190;-45
2023/09/04 10:46:16;;;;;;;9.90;8.33;;;;;;;18.91;80.14;94714.75;5049596;28;20206;-45
2023/09/04 10:48:43;;;;;;;8.33;6.50;;;;;;;18.81;81.93;94717.69;5050135;28;20199;-46
2023/09/04 10:51:33;;;;;;;8.40;6.47;;;;;;;18.72;82.79;94714.44;5049434;28;20666;-45
2023/09/04 10:54:02;;;;;;;7.87;7.07;;;;;;;18.67;83.30;94713.34;5049930;28;20194;-44
2023/09/04 10:56:50;;;;;;;8.90;7.97;;;;;;;18.68;84.25;94713.16;5049408;28;20249;-45
2023/09/04 10:59:17;;;;;;;9.83;7.17;;;;;;;18.62;84.72;94715.72;5049492;28;20219;-45
2023/09/04 11:01:44;;;;;;;8.03;7.33;;;;;;;18.68;87.01;94709.78;5049685;28;20206;-44
2023/09/04 11:04:10;;;;;;;9.07;7.00;;;;;;;18.62;87.00;94713.13;5049479;28;20190;-44
2023/09/04 11:06:38;;;;;;;7.73;7.03;;;;;;;18.67;86.73;94716.75;5049321;28;20190;-44
2023/09/04 11:09:05;;;;;;;10.07;7.97;;;;;;;18.69;86.99;94721.72;5049788;28;20634;-46
2023/09/04 11:11:35;;;;;;;8.07;7.27;;;;;;;18.72;87.20;94718.81;5049262;28;20202;-44
2023/09/04 11:14:03;;;;;;;11.03;7.70;;;;;;;18.76;87.16;94718.25;5049879;28;20580;-44
2023/09/04 11:16:48;;;;;;;7.20;6.60;;;;;;;18.75;87.27;94724.41;5049678;28;20544;-46
2023/09/04 11:19:16;;;;;;;7.63;6.37;;;;;;;18.72;86.71;94711.84;5049551;28;20294;-43
2023/09/04 11:21:45;;;;;;;7.00;6.40;;;;;;;18.84;86.49;94727.69;5049188;28;20189;-44
2023/09/04 11:24:12;;;;;;;5.57;5.03;;;;;;;18.83;86.34;94718.31;5049727;28;20225;-46
2023/09/04 11:26:40;;;;;;;5.33;4.63;;;;;;;18.82;85.58;94721.06;5049060;28;20191;-47
2023/09/04 11:29:07;;;;;;;6.70;5.97;;;;;;;18.81;86.35;94725.47;5049074;28;20687;-44
2023/09/04 11:31:34;;;;;;;6.77;5.47;;;;;;;18.68;87.15;94704.59;5049275;28;20194;-44
2023/09/04 11:34:02;;;;;;;6.03;5.53;;;;;;;18.71;87.41;94717.22;5049388;28;20187;-45
2023/09/04 11:36:29;;;;;;;5.80;5.30;;;;;;;18.76;87.58;94720.84;5049180;28;20670;-45
2023/09/04 11:39:06;;;;;;;7.73;5.97;;;;;;;18.72;88.09;94724.78;5049635;28;20183;-44